Time;durP1;ratioP1;P1;durP2;ratioP2;P2;SDS_P1;SDS_P2;PMS_P1;PMS_P2;Temp;Humidity;BMP_temperature;BMP_pressure;BME280_temperature;BME280_humidity;BME280_pressure;Samples;Min_cycle;Max_cycle;Signal;HPM_P1;HPM_P2
2023/06/01 00:04:21;;;;;;;15.80;14.20;;;24.00;68.20;;;;;;4662251;60;21075;-32
2023/06/01 00:09:22;;;;;;;15.25;13.73;;;24.00;68.20;;;;;;4668268;55;21055;-34
2023/06/01 00:14:23;;;;;;;16.23;14.52;;;24.00;68.20;;;;;;4698043;56;21079;-33
2023/06/01 00:19:25;;;;;;;16.30;14.68;;;23.90;68.10;;;;;;4712515;56;21546;-36
2023/06/01 00:24:26;;;;;;;14.98;13.05;;;23.90;68.10;;;;;;4693851;56;21570;-32
2023/06/01 00:29:27;;;;;;;16.73;14.98;;;23.90;68.20;;;;;;4728978;56;21076;-35
2023/06/01 00:34:28;;;;;;;14.90;13.40;;;23.90;68.20;;;;;;4742806;56;21111;-37
2023/06/01 00:39:29;;;;;;;14.95;13.55;;;24.00;68.20;;;;;;4710525;56;21501;-36
2023/06/01 00:44:30;;;;;;;14.68;13.18;;;23.90;68.10;;;;;;4693984;56;21079;-36
2023/06/01 00:49:31;;;;;;;14.73;13.18;;;23.90;68.20;;;;;;4680298;56;21467;-34
2023/06/01 00:54:31;;;;;;;16.40;14.80;;;23.90;68.20;;;;;;4678454;56;21031;-34
2023/06/01 00:59:34;;;;;;;15.27;13.70;;;23.90;68.20;;;;;;4676459;56;21574;-34
2023/06/01 01:04:35;;;;;;;15.07;13.50;;;23.90;68.20;;;;;;4662480;60;21055;-36
2023/06/01 01:10:00;;;;;;;13.73;12.43;;;23.90;67.90;;;;;;4680548;56;21486;-34
2023/06/01 01:15:32;;;;;;;15.30;13.80;;;23.90;68.10;;;;;;4662866;60;21012;-36
2023/06/01 01:20:39;;;;;;;14.45;13.05;;;23.90;68.20;;;;;;4682770;56;21127;-35
2023/06/01 01:27:51;;;;;;;14.77;13.27;;;23.90;68.30;;;;;;4669752;56;21115;-33
2023/06/01 01:32:54;;;;;;;14.10;12.70;;;23.90;68.20;;;;;;4672789;56;21541;-34
2023/06/01 01:37:58;;;;;;;14.60;13.15;;;23.90;68.30;;;;;;4709394;56;21553;-35
2023/06/01 01:43:00;;;;;;;13.77;12.48;;;23.90;68.90;;;;;;4661278;60;21036;-29
2023/06/01 01:48:29;;;;;;;12.98;11.68;;;23.90;68.20;;;;;;4722733;56;21657;-29
2023/06/01 01:53:30;;;;;;;12.75;11.45;;;23.90;68.20;;;;;;4679693;56;21578;-35
2023/06/01 01:58:31;;;;;;;13.13;11.82;;;23.90;68.30;;;;;;4662189;60;21104;-35
2023/06/01 02:03:32;;;;;;;13.18;11.88;;;23.90;68.20;;;;;;4662177;60;21065;-33
2023/06/01 02:08:33;;;;;;;14.35;12.95;;;23.90;68.30;;;;;;4662602;60;21116;-34
2023/06/01 02:13:35;;;;;;;13.73;12.43;;;23.90;68.20;;;;;;4741042;56;21024;-34
2023/06/01 02:18:39;;;;;;;13.02;11.73;;;23.90;68.20;;;;;;4662658;60;21047;-34
2023/06/01 02:23:40;;;;;;;13.27;12.00;;;23.90;68.20;;;;;;4672861;56;21549;-34
2023/06/01 02:28:42;;;;;;;13.25;11.95;;;23.90;68.90;;;;;;4662145;60;21396;-35
2023/06/01 02:33:43;;;;;;;13.57;12.23;;;23.90;68.20;;;;;;4662306;56;21546;-32
2023/06/01 02:38:45;;;;;;;13.10;11.80;;;23.90;68.20;;;;;;4711737;56;21052;-34
2023/06/01 02:43:45;;;;;;;12.95;11.70;;;23.90;68.20;;;;;;4692504;56;21106;-36
2023/06/01 02:48:47;;;;;;;13.68;12.30;;;23.90;68.20;;;;;;4662641;56;21099;-35
2023/06/01 02:53:48;;;;;;;13.35;12.10;;;23.90;68.20;;;;;;4733214;56;21672;-33
2023/06/01 02:58:50;;;;;;;13.60;12.25;;;23.90;68.20;;;;;;4662680;56;21178;-35
2023/06/01 03:03:52;;;;;;;12.95;11.65;;;23.90;68.20;;;;;;4713588;56;21000;-34
2023/06/01 03:08:52;;;;;;;13.43;12.13;;;23.90;68.20;;;;;;4662279;60;21580;-33
2023/06/01 03:13:53;;;;;;;12.48;11.27;;;23.90;68.20;;;;;;4675365;56;21023;-35
2023/06/01 03:18:55;;;;;;;11.30;10.13;;;23.90;68.20;;;;;;4755571;55;21151;-35
2023/06/01 03:23:55;;;;;;;11.93;10.73;;;23.90;68.20;;;;;;4662439;60;21489;-35
2023/06/01 03:28:56;;;;;;;12.52;11.23;;;23.90;68.20;;;;;;4662462;60;21055;-32
2023/06/01 03:33:57;;;;;;;11.90;10.70;;;23.90;68.30;;;;;;4742073;56;21048;-34
2023/06/01 03:38:58;;;;;;;12.20;11.00;;;23.90;68.40;;;;;;4662019;60;21085;-33
2023/06/01 03:43:59;;;;;;;11.68;10.57;;;23.90;68.30;;;;;;4679074;56;21052;-33
2023/06/01 03:49:00;;;;;;;12.48;11.27;;;23.90;68.40;;;;;;4662396;60;21052;-34
2023/06/01 03:54:00;;;;;;;12.05;10.88;;;23.90;68.40;;;;;;4697105;56;21047;-34
2023/06/01 03:59:01;;;;;;;12.50;11.30;;;23.80;68.20;;;;;;4677577;56;21028;-36
2023/06/01 04:04:04;;;;;;;11.90;10.70;;;23.80;68.20;;;;;;4712381;56;21052;-36
2023/06/01 04:09:06;;;;;;;12.10;10.90;;;23.80;68.20;;;;;;4667140;56;21497;-34
2023/06/01 04:14:07;;;;;;;12.07;10.90;;;23.80;68.20;;;;;;4673379;56;21542;-36
2023/06/01 04:19:08;;;;;;;12.50;11.30;;;23.80;68.20;;;;;;4662493;60;21075;-34
2023/06/01 04:24:09;;;;;;;11.55;10.43;;;23.80;68.10;;;;;;4683236;56;21569;-36
2023/06/01 04:29:11;;;;;;;11.60;10.60;;;23.80;68.10;;;;;;4669322;56;21470;-34
2023/06/01 04:34:12;;;;;;;11.93;10.70;;;23.80;68.10;;;;;;4713194;56;21697;-30
2023/06/01 04:39:13;;;;;;;11.20;10.10;;;23.80;68.00;;;;;;4663424;56;21008;-36
2023/06/01 04:44:15;;;;;;;10.80;9.70;;;23.80;68.30;;;;;;4670648;56;21581;-33
2023/06/01 04:49:19;;;;;;;11.77;10.60;;;23.80;67.90;;;;;;4662177;60;21586;-36
2023/06/01 04:54:20;;;;;;;10.80;9.65;;;23.80;67.90;;;;;;4691404;56;21574;-34
2023/06/01 04:59:21;;;;;;;12.40;11.15;;;23.80;67.90;;;;;;4662195;60;21028;-36
2023/06/01 05:04:22;;;;;;;12.80;10.63;;;23.80;67.80;;;;;;4665971;56;21485;-33
2023/06/01 05:09:23;;;;;;;11.20;10.10;;;23.80;67.80;;;;;;4790738;56;21486;-37
2023/06/01 05:14:24;;;;;;;11.45;10.25;;;23.80;67.80;;;;;;4668422;56;21019;-36
2023/06/01 05:19:25;;;;;;;11.15;10.05;;;23.80;67.80;;;;;;4686568;56;21031;-37
2023/06/01 05:24:26;;;;;;;11.10;9.90;;;23.80;67.70;;;;;;4662401;59;21111;-35
2023/06/01 05:29:27;;;;;;;10.93;9.38;;;23.80;67.70;;;;;;4672235;56;21477;-35
2023/06/01 05:34:27;;;;;;;12.20;10.88;;;23.80;67.60;;;;;;4717391;56;21047;-36
2023/06/01 05:39:28;;;;;;;11.85;10.55;;;23.80;67.60;;;;;;4780437;56;21068;-34
2023/06/01 05:44:31;;;;;;;11.55;10.02;;;23.80;67.60;;;;;;4694231;56;21032;-34
2023/06/01 05:49:33;;;;;;;11.85;10.02;;;23.80;67.60;;;;;;4687944;56;21044;-36
2023/06/01 05:54:34;;;;;;;11.93;9.65;;;23.80;67.60;;;;;;4849105;56;21083;-35
2023/06/01 05:59:35;;;;;;;12.30;10.77;;;23.80;67.50;;;;;;4662151;60;21142;-36
2023/06/01 06:04:36;;;;;;;12.90;10.80;;;23.80;67.60;;;;;;4696211;56;21177;-33
2023/06/01 06:09:37;;;;;;;12.10;10.80;;;23.70;67.50;;;;;;4687444;55;21059;-33
2023/06/01 06:14:38;;;;;;;13.98;10.50;;;23.80;67.50;;;;;;4740209;56;21083;-34
2023/06/01 06:19:38;;;;;;;12.27;10.98;;;23.80;67.50;;;;;;4663065;56;21044;-34
2023/06/01 06:24:39;;;;;;;12.80;10.98;;;23.80;67.40;;;;;;4684730;56;21035;-35
2023/06/01 06:29:40;;;;;;;12.05;9.90;;;23.80;67.50;;;;;;4716774;56;21562;-33
2023/06/01 06:34:41;;;;;;;12.77;10.82;;;23.80;67.40;;;;;;4687296;56;21537;-35
2023/06/01 06:51:55;;;;;;;13.95;11.70;;;23.80;66.90;;;;;;4922974;53;28450;-43
2023/06/01 06:56:56;;;;;;;12.37;11.12;;;23.80;67.30;;;;;;5005777;53;21596;-37
2023/06/01 07:01:57;;;;;;;13.40;11.35;;;23.80;67.30;;;;;;4875444;53;21047;-35
2023/06/01 07:07:00;;;;;;;14.13;11.80;;;23.80;67.30;;;;;;4969124;53;21521;-37
2023/06/01 07:12:01;;;;;;;12.75;11.07;;;23.80;67.30;;;;;;4872890;53;21501;-38
2023/06/01 07:17:02;;;;;;;13.73;12.32;;;23.80;67.30;;;;;;4858542;55;21396;-33
2023/06/01 07:22:04;;;;;;;12.88;11.50;;;23.80;67.30;;;;;;4908569;53;21552;-34
2023/06/01 07:27:07;;;;;;;15.27;11.93;;;23.80;67.30;;;;;;4866854;53;21469;-35
2023/06/01 07:32:08;;;;;;;12.88;11.35;;;23.80;67.30;;;;;;4885636;53;21698;-34
2023/06/01 07:37:09;;;;;;;15.70;12.07;;;23.80;67.30;;;;;;4982592;53;21553;-39
2023/06/01 07:42:10;;;;;;;14.02;12.30;;;23.80;67.30;;;;;;4858819;57;20992;-35
2023/06/01 07:47:11;;;;;;;14.23;11.12;;;23.80;67.30;;;;;;4891694;53;22449;-35
2023/06/01 07:52:12;;;;;;;14.48;12.52;;;23.80;67.30;;;;;;4833768;54;21031;-36
2023/06/01 07:57:13;;;;;;;15.48;12.77;;;23.80;67.30;;;;;;4799533;58;21480;-34
2023/06/01 08:02:14;;;;;;;16.12;13.85;;;23.80;67.30;;;;;;4798846;58;21023;-35
2023/06/01 08:07:16;;;;;;;14.10;12.18;;;23.80;67.30;;;;;;4895099;54;21533;-37
2023/06/01 08:12:17;;;;;;;17.00;13.52;;;23.80;67.30;;;;;;4799241;58;21535;-35
2023/06/01 08:17:18;;;;;;;15.95;13.05;;;23.80;67.40;;;;;;4881548;54;21351;-34
2023/06/01 08:22:20;;;;;;;14.50;12.45;;;23.80;67.40;;;;;;4799411;58;21674;-31
2023/06/01 08:27:23;;;;;;;15.70;13.30;;;23.80;67.30;;;;;;4896901;54;21559;-33
2023/06/01 08:32:24;;;;;;;14.20;12.25;;;23.80;67.40;;;;;;4860086;54;21007;-34
2023/06/01 08:37:25;;;;;;;16.30;12.85;;;23.80;67.40;;;;;;4799131;54;21552;-32
2023/06/01 08:44:07;;;;;;;15.88;13.38;;;23.80;67.50;;;;;;4808411;54;21014;-32
2023/06/01 08:49:13;;;;;;;16.08;12.80;;;23.80;67.40;;;;;;4802655;54;21070;-33
2023/06/01 08:54:14;;;;;;;17.40;13.47;;;23.80;67.40;;;;;;4942867;54;21054;-35
2023/06/01 08:59:15;;;;;;;15.48;13.48;;;23.80;67.40;;;;;;4826830;54;21034;-34
2023/06/01 09:04:17;;;;;;;17.10;13.38;;;23.80;67.30;;;;;;4798869;58;21030;-32
2023/06/01 09:09:18;;;;;;;16.48;13.75;;;23.90;67.40;;;;;;4870884;54;21542;-34
2023/06/01 09:14:24;;;;;;;17.37;13.95;;;23.80;67.40;;;;;;4798821;58;21010;-35
2023/06/01 09:19:41;;;;;;;17.08;14.65;;;23.80;67.40;;;;;;4826592;54;21086;-33
2023/06/01 09:24:56;;;;;;;16.90;14.05;;;23.80;67.40;;;;;;4899442;54;20998;-32
2023/06/01 09:30:00;;;;;;;17.20;14.30;;;23.80;67.40;;;;;;4907381;54;21184;-33
2023/06/01 09:35:01;;;;;;;16.98;14.48;;;23.80;67.50;;;;;;4929743;54;21030;-33
2023/06/01 09:40:15;;;;;;;18.08;14.87;;;23.80;67.40;;;;;;4902811;54;21311;-35
2023/06/01 09:45:25;;;;;;;17.60;14.20;;;23.80;67.50;;;;;;4799239;58;21058;-34
2023/06/01 09:50:37;;;;;;;15.98;13.38;;;23.90;67.50;;;;;;4814281;54;21113;-34
2023/06/01 09:56:00;;;;;;;19.10;14.82;;;23.90;67.50;;;;;;4796435;58;22368;-31
2023/06/01 10:01:03;;;;;;;21.40;16.83;;;24.00;67.50;;;;;;4861117;54;21023;-32
2023/06/01 10:06:05;;;;;;;22.15;17.65;;;24.00;67.40;;;;;;4809060;54;21718;-33
2023/06/01 10:11:07;;;;;;;20.02;16.20;;;24.00;67.40;;;;;;4814749;54;21511;-33
2023/06/01 10:16:08;;;;;;;20.48;16.58;;;24.00;67.50;;;;;;4800536;54;21078;-34
2023/06/01 10:21:09;;;;;;;19.70;16.45;;;24.00;67.50;;;;;;4804903;54;21617;-34
2023/06/01 10:26:15;;;;;;;19.85;15.95;;;24.00;67.40;;;;;;4907589;54;21492;-31
2023/06/01 10:38:23;;;;;;;19.77;15.73;;;24.00;67.40;;;;;;4796958;58;21555;-34
2023/06/01 10:45:40;;;;;;;22.50;15.98;;;24.00;67.30;;;;;;4796182;58;21371;-34
2023/06/01 10:50:42;;;;;;;19.73;16.27;;;24.10;67.40;;;;;;4826229;54;21118;-32
2023/06/01 10:55:43;;;;;;;18.02;15.25;;;24.20;67.30;;;;;;4866401;54;21034;-30
2023/06/01 11:00:44;;;;;;;19.62;16.33;;;24.20;67.70;;;;;;4822485;54;21105;-32
2023/06/01 11:05:51;;;;;;;18.80;15.60;;;24.20;67.70;;;;;;4834999;54;21015;-30
2023/06/01 11:11:06;;;;;;;18.90;16.50;;;24.20;68.00;;;;;;4807178;54;21039;-32
2023/06/01 11:16:28;;;;;;;20.85;16.48;;;24.30;68.10;;;;;;4796526;58;21801;-30
2023/06/01 11:21:42;;;;;;;19.35;15.93;;;24.30;68.10;;;;;;4796630;58;21548;-32
2023/06/01 11:26:46;;;;;;;19.45;16.55;;;24.30;68.30;;;;;;4823184;54;21464;-31
2023/06/01 11:31:56;;;;;;;22.17;16.42;;;24.30;68.30;;;;;;4845430;54;21504;-31
2023/06/01 11:36:58;;;;;;;19.85;16.27;;;24.30;68.40;;;;;;4804928;54;21480;-33
2023/06/01 11:42:10;;;;;;;19.85;16.98;;;24.30;68.60;;;;;;4821957;54;21516;-32
2023/06/01 11:47:12;;;;;;;18.75;16.75;;;24.40;68.80;;;;;;4812471;54;21504;-33
2023/06/01 11:52:13;;;;;;;20.00;16.95;;;24.40;68.80;;;;;;4810094;54;21083;-30
2023/06/01 11:57:15;;;;;;;18.23;15.40;;;24.40;69.00;;;;;;4797370;54;21023;-28
2023/06/01 12:02:26;;;;;;;18.48;16.45;;;24.40;69.10;;;;;;4839879;54;21599;-34
2023/06/01 12:07:28;;;;;;;19.37;16.42;;;24.40;69.10;;;;;;4818384;54;21732;-30
2023/06/01 12:12:29;;;;;;;19.58;16.65;;;24.40;69.10;;;;;;4842379;54;21010;-31
2023/06/01 12:17:54;;;;;;;20.02;17.20;;;24.40;69.10;;;;;;4805478;54;21560;-33
2023/06/01 12:22:55;;;;;;;18.30;15.50;;;24.40;69.30;;;;;;4810604;54;21050;-31
2023/06/01 12:28:08;;;;;;;19.10;15.85;;;24.40;69.20;;;;;;4823474;54;21042;-27
2023/06/01 12:33:29;;;;;;;20.88;16.65;;;24.40;69.20;;;;;;4824178;54;21532;-33
2023/06/01 12:38:51;;;;;;;19.67;16.65;;;24.40;69.70;;;;;;4808915;54;20999;-35
2023/06/01 12:43:53;;;;;;;21.10;16.92;;;24.40;69.80;;;;;;4796621;58;21532;-31
2023/06/01 12:49:11;;;;;;;19.83;17.20;;;24.40;69.80;;;;;;4842698;54;21054;-32
2023/06/01 12:54:12;;;;;;;18.35;16.37;;;24.50;69.80;;;;;;4797521;58;21070;-35
2023/06/01 12:59:12;;;;;;;22.95;16.40;;;24.40;69.90;;;;;;4796329;58;21026;-32
2023/06/01 13:04:13;;;;;;;22.13;17.33;;;24.50;70.20;;;;;;4810961;54;21015;-32
2023/06/01 13:09:14;;;;;;;21.02;17.83;;;24.40;70.20;;;;;;4820884;54;21684;-32
2023/06/01 13:14:15;;;;;;;21.20;16.10;;;24.40;70.20;;;;;;4814528;54;21023;-32
2023/06/01 13:19:16;;;;;;;20.50;17.25;;;24.40;70.20;;;;;;4807762;54;22253;-33
2023/06/01 13:24:17;;;;;;;19.48;16.87;;;24.50;70.20;;;;;;4798031;54;21015;-31
2023/06/01 13:29:18;;;;;;;18.58;16.58;;;24.40;70.40;;;;;;4808120;54;21066;-33
2023/06/01 13:34:20;;;;;;;19.40;16.75;;;24.30;70.70;;;;;;4875062;54;21003;-32
2023/06/01 13:39:21;;;;;;;19.70;17.55;;;24.30;70.40;;;;;;4821563;54;21599;-32
2023/06/01 13:44:22;;;;;;;19.87;16.65;;;24.30;70.40;;;;;;4798015;58;21029;-34
2023/06/01 13:49:23;;;;;;;19.20;16.70;;;24.30;70.30;;;;;;4797706;58;21604;-32
2023/06/01 13:54:24;;;;;;;21.08;18.27;;;24.30;70.30;;;;;;4811333;54;21023;-34
2023/06/01 13:59:25;;;;;;;18.87;16.87;;;24.20;70.30;;;;;;4852066;54;21023;-37
2023/06/01 14:04:27;;;;;;;19.95;17.10;;;24.30;70.30;;;;;;4806415;54;21062;-33
2023/06/01 14:09:27;;;;;;;20.02;17.73;;;24.20;70.30;;;;;;4822550;54;21019;-32
2023/06/01 14:14:28;;;;;;;18.35;16.40;;;24.20;70.20;;;;;;4813246;54;21445;-35
2023/06/01 14:19:29;;;;;;;19.00;17.00;;;24.20;70.20;;;;;;4797182;55;21022;-34
2023/06/01 14:24:30;;;;;;;20.90;16.55;;;24.20;70.10;;;;;;4798218;58;21029;-33
2023/06/01 14:29:31;;;;;;;19.40;17.40;;;24.20;70.10;;;;;;4840604;54;21003;-32
2023/06/01 14:34:32;;;;;;;17.83;16.02;;;24.20;69.90;;;;;;4810986;54;21109;-34
2023/06/01 14:39:32;;;;;;;18.92;16.92;;;24.20;69.90;;;;;;4798307;58;21138;-34
2023/06/01 14:44:33;;;;;;;18.50;16.52;;;24.20;69.90;;;;;;4865697;54;21010;-33
2023/06/01 14:49:34;;;;;;;19.08;17.08;;;24.20;69.90;;;;;;4802425;54;21528;-33
2023/06/01 14:54:35;;;;;;;19.67;16.87;;;24.20;70.00;;;;;;4853435;54;21023;-28
2023/06/01 14:59:36;;;;;;;16.65;14.87;;;24.20;69.90;;;;;;4824207;54;21007;-34
2023/06/01 15:04:37;;;;;;;19.12;16.40;;;24.20;69.90;;;;;;4833994;54;21011;-33
2023/06/01 15:09:38;;;;;;;19.10;17.15;;;24.20;69.90;;;;;;4851740;54;21472;-33
2023/06/01 15:14:39;;;;;;;17.85;16.02;;;24.20;69.90;;;;;;4837183;54;21073;-31
2023/06/01 15:19:40;;;;;;;19.40;16.87;;;24.20;69.80;;;;;;4798396;58;21018;-33
2023/06/01 15:24:41;;;;;;;19.37;17.37;;;24.20;69.70;;;;;;4799698;58;21477;-36
2023/06/01 15:29:42;;;;;;;18.55;16.65;;;24.20;69.70;;;;;;4848447;54;21591;-34
2023/06/01 15:34:43;;;;;;;19.05;17.05;;;24.20;69.80;;;;;;4799771;58;21083;-33
2023/06/01 15:39:44;;;;;;;18.90;16.90;;;24.20;69.60;;;;;;4844077;54;21014;-36
2023/06/01 15:44:44;;;;;;;19.25;17.25;;;24.30;69.30;;;;;;4921810;54;21010;-33
2023/06/01 15:49:46;;;;;;;20.05;17.83;;;24.30;69.10;;;;;;4852503;54;21472;-34
2023/06/01 15:54:49;;;;;;;19.83;17.87;;;24.40;69.10;;;;;;4827003;54;21472;-32
2023/06/01 15:59:50;;;;;;;19.85;17.75;;;24.30;69.10;;;;;;4892388;54;21058;-35
2023/06/01 16:04:51;;;;;;;18.85;16.85;;;24.30;69.00;;;;;;4799488;58;21070;-34
2023/06/01 16:09:52;;;;;;;19.55;17.48;;;24.30;69.00;;;;;;4799223;58;21042;-34
2023/06/01 16:14:53;;;;;;;19.50;17.42;;;24.30;69.00;;;;;;4875823;54;21006;-34
2023/06/01 16:19:54;;;;;;;19.98;17.98;;;24.30;68.90;;;;;;4798702;58;21082;-34
2023/06/01 16:24:56;;;;;;;19.80;17.70;;;24.30;68.90;;;;;;4799573;58;21074;-32
2023/06/01 16:29:57;;;;;;;19.62;17.50;;;24.30;68.90;;;;;;4799292;58;21901;-33
2023/06/01 16:34:57;;;;;;;20.67;18.58;;;24.30;68.90;;;;;;4799138;58;21100;-35
2023/06/01 16:39:58;;;;;;;20.62;18.50;;;24.30;68.90;;;;;;5009508;54;21003;-34
2023/06/01 16:44:59;;;;;;;20.50;18.42;;;24.30;68.90;;;;;;4880157;54;20999;-33
2023/06/01 16:50:01;;;;;;;20.40;18.30;;;24.30;68.80;;;;;;4798963;55;21579;-33
2023/06/01 16:55:02;;;;;;;19.62;17.52;;;24.30;68.80;;;;;;4874256;54;21002;-33
2023/06/01 17:00:03;;;;;;;20.27;18.02;;;24.30;68.90;;;;;;4798549;58;21081;-35
2023/06/01 17:05:05;;;;;;;19.77;17.70;;;24.30;68.90;;;;;;4804803;54;21107;-35
2023/06/01 17:10:07;;;;;;;20.77;18.58;;;24.30;68.80;;;;;;4815182;54;20974;-36
2023/06/01 17:15:08;;;;;;;20.40;18.17;;;24.30;68.80;;;;;;4799353;58;21000;-34
2023/06/01 17:20:10;;;;;;;20.40;18.23;;;24.20;69.00;;;;;;4896748;54;21548;-34
2023/06/01 17:25:11;;;;;;;20.90;18.80;;;24.10;69.30;;;;;;4982286;54;21485;-36
2023/06/01 17:30:12;;;;;;;20.35;18.25;;;24.20;69.40;;;;;;4833675;54;21046;-32
2023/06/01 17:35:13;;;;;;;20.50;18.27;;;24.30;69.00;;;;;;4870813;54;21117;-36
2023/06/01 17:40:14;;;;;;;18.87;16.92;;;24.30;68.80;;;;;;4895836;54;21015;-32
2023/06/01 17:45:15;;;;;;;19.17;17.17;;;24.20;69.00;;;;;;4799254;58;21607;-29
2023/06/01 17:50:16;;;;;;;19.48;17.40;;;24.20;69.00;;;;;;4825243;54;21093;-34
2023/06/01 17:55:17;;;;;;;19.35;17.35;;;24.20;69.20;;;;;;4798781;58;21019;-34
2023/06/01 18:00:19;;;;;;;19.95;17.90;;;24.10;69.30;;;;;;4834666;54;21094;-33
2023/06/01 18:05:19;;;;;;;19.73;17.67;;;24.10;69.40;;;;;;4999242;54;20995;-33
2023/06/01 18:10:20;;;;;;;19.23;17.33;;;24.20;69.20;;;;;;4799368;58;21014;-33
2023/06/01 18:15:21;;;;;;;20.45;18.42;;;24.20;69.30;;;;;;4993657;54;21043;-33
2023/06/01 18:20:22;;;;;;;19.58;17.62;;;24.20;69.50;;;;;;4854517;54;21047;-33
2023/06/01 18:25:23;;;;;;;18.40;16.45;;;24.10;69.40;;;;;;4808305;54;21508;-33
2023/06/01 18:30:24;;;;;;;18.55;16.73;;;24.10;69.40;;;;;;4835394;54;21011;-34
2023/06/01 18:35:25;;;;;;;20.48;18.48;;;24.20;69.30;;;;;;4878927;54;21007;-32
2023/06/01 18:40:26;;;;;;;19.00;17.10;;;24.20;69.40;;;;;;4831242;54;21011;-32
2023/06/01 18:45:27;;;;;;;19.90;17.98;;;24.10;69.30;;;;;;4898047;54;21026;-34
2023/06/01 18:50:31;;;;;;;20.37;18.20;;;24.10;69.40;;;;;;4871466;54;21026;-35
2023/06/01 18:55:31;;;;;;;20.15;18.17;;;24.10;69.50;;;;;;4816949;54;21534;-36
2023/06/01 19:00:32;;;;;;;20.50;18.40;;;24.10;69.50;;;;;;4897312;54;21103;-33
2023/06/01 19:05:33;;;;;;;19.77;17.85;;;24.10;69.50;;;;;;4848025;54;21560;-33
2023/06/01 19:11:19;;;;;;;19.90;17.90;;;24.10;69.40;;;;;;4907555;54;21463;-32
2023/06/01 19:16:26;;;;;;;19.87;17.97;;;24.10;69.40;;;;;;4956091;54;21398;-34
2023/06/01 19:21:32;;;;;;;19.05;17.25;;;24.10;69.50;;;;;;4797846;58;21015;-33
2023/06/01 19:26:34;;;;;;;20.52;18.60;;;24.10;69.50;;;;;;4807939;54;21547;-34
2023/06/01 19:31:40;;;;;;;19.48;17.58;;;24.10;69.50;;;;;;4867445;54;21086;-36
2023/06/01 19:36:54;;;;;;;20.00;17.87;;;24.10;69.50;;;;;;4817786;54;21519;-36
2023/06/01 19:42:29;;;;;;;18.90;17.02;;;24.10;69.50;;;;;;4798990;58;21050;-33
2023/06/01 19:47:50;;;;;;;20.10;18.10;;;24.10;69.50;;;;;;4858315;54;21584;-36
2023/06/01 19:52:51;;;;;;;19.83;17.92;;;24.00;69.50;;;;;;4896118;54;21612;-34
2023/06/01 19:57:52;;;;;;;20.30;18.40;;;24.10;69.50;;;;;;4807234;54;21089;-34
2023/06/01 20:02:55;;;;;;;19.10;17.10;;;24.10;69.70;;;;;;4867689;54;21500;-34
2023/06/01 20:07:59;;;;;;;19.42;17.58;;;24.10;69.50;;;;;;4813854;54;21005;-35
2023/06/01 20:13:03;;;;;;;20.00;17.90;;;24.00;69.50;;;;;;4799696;58;21014;-38
2023/06/01 20:18:06;;;;;;;18.73;16.83;;;24.00;69.50;;;;;;4880483;54;21599;-33
2023/06/01 20:23:14;;;;;;;20.37;18.37;;;24.00;69.50;;;;;;4813832;54;21989;-30
2023/06/01 20:28:49;;;;;;;20.73;18.62;;;24.00;69.50;;;;;;4799485;58;21003;-33
2023/06/01 20:33:52;;;;;;;19.80;17.90;;;24.00;69.40;;;;;;4993450;54;21532;-34
2023/06/01 20:38:53;;;;;;;19.83;17.80;;;24.00;69.40;;;;;;4798532;58;21043;-35
2023/06/01 20:43:55;;;;;;;20.85;18.70;;;24.00;69.40;;;;;;4918902;54;21085;-34
2023/06/01 20:49:08;;;;;;;19.62;17.73;;;24.00;69.40;;;;;;4883564;54;21101;-37
2023/06/01 20:54:14;;;;;;;20.42;18.42;;;24.00;69.40;;;;;;4940067;54;21500;-36
2023/06/01 20:59:36;;;;;;;19.47;17.47;;;24.00;69.40;;;;;;4908387;54;21493;-36
2023/06/01 21:04:37;;;;;;;19.95;17.87;;;24.00;69.40;;;;;;4879570;54;21126;-33
2023/06/01 21:09:39;;;;;;;19.30;17.48;;;24.00;69.30;;;;;;4799505;58;21504;-37
2023/06/01 21:14:40;;;;;;;18.80;16.98;;;24.00;69.40;;;;;;4846727;54;21460;-32
2023/06/01 21:19:41;;;;;;;20.33;18.23;;;24.00;69.30;;;;;;4929979;54;21062;-34
2023/06/01 21:24:41;;;;;;;19.02;17.17;;;24.00;69.30;;;;;;4798342;58;21622;-33
2023/06/01 21:29:42;;;;;;;18.85;17.05;;;24.00;69.30;;;;;;4799260;58;21051;-34
2023/06/01 21:34:43;;;;;;;18.80;16.87;;;24.00;69.30;;;;;;4867664;54;21014;-34
2023/06/01 21:39:44;;;;;;;19.87;17.87;;;24.00;69.30;;;;;;4853236;54;21018;-37
2023/06/01 21:44:45;;;;;;;18.10;16.40;;;24.00;69.30;;;;;;4895930;54;21007;-34
2023/06/01 21:49:46;;;;;;;19.73;17.73;;;24.00;69.20;;;;;;4801536;54;21580;-35
2023/06/01 21:54:47;;;;;;;18.98;17.17;;;24.00;69.20;;;;;;4799363;58;21066;-33
2023/06/01 21:59:49;;;;;;;19.30;17.42;;;24.00;69.30;;;;;;4875210;54;21486;-33
2023/06/01 22:04:51;;;;;;;18.62;16.83;;;24.00;69.20;;;;;;4868668;54;21477;-33
2023/06/01 22:09:53;;;;;;;16.98;15.38;;;24.10;69.20;;;;;;5024371;54;21559;-34
2023/06/01 22:14:54;;;;;;;17.83;16.08;;;24.00;69.20;;;;;;4829693;54;21500;-34
2023/06/01 22:19:55;;;;;;;19.23;17.25;;;24.00;69.20;;;;;;4818856;54;21636;-35
2023/06/01 22:24:56;;;;;;;19.52;17.52;;;24.00;69.20;;;;;;4845360;54;21006;-34
2023/06/01 22:29:57;;;;;;;16.98;15.38;;;24.00;69.20;;;;;;4813910;54;21062;-35
2023/06/01 22:34:58;;;;;;;19.02;17.23;;;24.00;69.10;;;;;;5034063;54;21745;-36
2023/06/01 22:39:59;;;;;;;18.12;16.40;;;24.10;69.10;;;;;;4816227;54;21118;-34
2023/06/01 22:45:00;;;;;;;18.55;16.75;;;24.10;69.10;;;;;;4871089;54;21548;-32
2023/06/01 22:50:03;;;;;;;18.30;16.45;;;24.00;69.10;;;;;;4850070;54;21082;-32
2023/06/01 22:55:05;;;;;;;19.08;17.08;;;24.00;69.20;;;;;;4804490;54;21477;-32
2023/06/01 23:00:09;;;;;;;18.00;16.20;;;24.00;69.00;;;;;;4943012;54;21500;-33
2023/06/01 23:05:12;;;;;;;18.25;16.30;;;24.00;69.10;;;;;;4929251;54;21488;-33
2023/06/01 23:10:13;;;;;;;18.87;16.98;;;24.00;69.00;;;;;;4812318;54;21548;-35
2023/06/01 23:15:14;;;;;;;18.30;16.48;;;24.00;69.00;;;;;;4851609;54;21018;-32
2023/06/01 23:20:16;;;;;;;17.17;15.38;;;24.00;69.00;;;;;;4835524;54;21610;-36
2023/06/01 23:25:17;;;;;;;18.48;16.67;;;24.00;69.00;;;;;;4799517;58;21500;-35
2023/06/01 23:30:18;;;;;;;17.58;15.77;;;24.00;68.90;;;;;;4799830;55;21524;-34
2023/06/01 23:35:19;;;;;;;18.00;16.10;;;24.00;68.90;;;;;;4807681;54;21078;-36
2023/06/01 23:40:21;;;;;;;18.48;16.67;;;24.00;69.00;;;;;;4798353;58;20998;-34
2023/06/01 23:45:22;;;;;;;17.02;15.43;;;24.00;69.00;;;;;;4799448;58;21015;-33
2023/06/01 23:50:26;;;;;;;17.77;16.12;;;24.00;69.00;;;;;;4804633;54;21496;-34
2023/06/01 23:55:27;;;;;;;17.48;15.77;;;24.00;69.00;;;;;;4852111;54;21066;-34
